Portada
METAR-TAF:

METAR-TAF

Aeropuertos :

Malé, Hulhule Island, Maldivas

Aeropuerto Internacional de Malé

latitud: 04-12N, longitud: 073-32E, altitud: 2 m

Observación

El informe se hizo hace 33 minutos, a las 17:00 UTC
Viento 3 kt del norte
Temperatura 29°C
Humedad 84%
Presión 1011 hPa
Visibilidad 10 km o más
Escasas nubes a una altura de 1800 ft, Cumulus congestus.

METAR: VRMM 191700Z 36003KT 9999 FEW018TCU 29/26 Q1011 NOSIG

Hora: 22:33 (17:33 UTC)

Pronóstico

El informe se hizo hace 6 horas y 33 minutos, a las 11:00 UTC
Pronóstico válido del 19 a las 12 UTC al 20 a las 18 UTC
Viento 6 kt del oeste-noroeste
Visibilidad 10 km o más
Escasas nubes a una altura de 1800 ft
Temporalmente
del 19 a las 12 UTC al 19 a las 18 UTC
Visibilidad: 5000 m
Escasas nubes a una altura de 1800 ft, Cumulonimbus.
chaparrones de lluvia

TAF: VRMM 191100Z 1912/2018 30006KT 9999 FEW018 TEMPO 1912/1918 5000 -SHRA FEW018CB

Observaciones y pronósticos meteorológicos de más de 4000 aeropuertos (mensajes METAR y TAF).

Los puntos amarillos y rojos representan las estaciones disponibles.

Ponga el ratón en el punto deseado para ver el nombre de la estación.

Haga clic para ver las observaciones y los pronósticos meteorológicos.

Para cambiar el mapa : haga clic en los botones verdes con una cruz de color negro para hacer un zoom, en el botón verde con un guión para alejar o en las flechas verdes para mapas adyacentes.


METAR-TAF: